sensor_id;sensor_type;location;lat;lon;timestamp;temperature;humidity
63966;DHT22;50151;52.030;5.350;2022-07-23T04:37:44;14.00;84.80
63966;DHT22;50151;52.030;5.350;2022-07-23T04:40:12;14.00;85.10
63966;DHT22;50151;52.030;5.350;2022-07-23T04:42:39;14.00;85.30
63966;DHT22;50151;52.030;5.350;2022-07-23T04:45:06;14.00;85.20
63966;DHT22;50151;52.030;5.350;2022-07-23T04:47:39;14.00;85.20
63966;DHT22;50151;52.030;5.350;2022-07-23T04:50:06;14.00;85.20
63966;DHT22;50151;52.030;5.350;2022-07-23T04:52:32;14.10;85.20
63966;DHT22;50151;52.030;5.350;2022-07-23T04:54:59;14.10;85.20
63966;DHT22;50151;52.030;5.350;2022-07-23T04:57:26;14.10;85.20
63966;DHT22;50151;52.030;5.350;2022-07-23T04:59:53;14.10;85.70
63966;DHT22;50151;52.030;5.350;2022-07-23T05:02:20;14.10;85.40
63966;DHT22;50151;52.030;5.350;2022-07-23T05:04:46;14.20;85.10
63966;DHT22;50151;52.030;5.350;2022-07-23T05:07:14;14.20;84.80
63966;DHT22;50151;52.030;5.350;2022-07-23T05:09:40;14.20;85.20
63966;DHT22;50151;52.030;5.350;2022-07-23T05:12:07;14.30;86.20
63966;DHT22;50151;52.030;5.350;2022-07-23T05:14:34;14.30;85.50
63966;DHT22;50151;52.030;5.350;2022-07-23T05:17:01;14.40;86.00
63966;DHT22;50151;52.030;5.350;2022-07-23T05:19:28;14.40;85.60
63966;DHT22;50151;52.030;5.350;2022-07-23T05:21:55;14.50;85.40
63966;DHT22;50151;52.030;5.350;2022-07-23T05:24:21;14.60;85.40
63966;DHT22;50151;52.030;5.350;2022-07-23T05:26:48;14.50;86.10
63966;DHT22;50151;52.030;5.350;2022-07-23T05:29:15;14.60;87.20
63966;DHT22;50151;52.030;5.350;2022-07-23T05:31:42;14.70;87.00
63966;DHT22;50151;52.030;5.350;2022-07-23T05:34:08;14.80;86.90
63966;DHT22;50151;52.030;5.350;2022-07-23T05:36:42;14.80;87.00
63966;DHT22;50151;52.030;5.350;2022-07-23T05:39:09;14.90;87.60
63966;DHT22;50151;52.030;5.350;2022-07-23T05:41:36;14.90;87.50
63966;DHT22;50151;52.030;5.350;2022-07-23T05:44:03;15.00;86.70
63966;DHT22;50151;52.030;5.350;2022-07-23T05:46:30;15.10;86.40
63966;DHT22;50151;52.030;5.350;2022-07-23T05:48:56;15.20;86.80
63966;DHT22;50151;52.030;5.350;2022-07-23T05:51:24;15.20;86.50
63966;DHT22;50151;52.030;5.350;2022-07-23T05:53:52;15.30;86.60
63966;DHT22;50151;52.030;5.350;2022-07-23T05:56:19;15.30;87.00
63966;DHT22;50151;52.030;5.350;2022-07-23T05:58:45;15.40;85.60
63966;DHT22;50151;52.030;5.350;2022-07-23T06:01:13;15.50;86.20
63966;DHT22;50151;52.030;5.350;2022-07-23T06:03:40;15.50;85.20
63966;DHT22;50151;52.030;5.350;2022-07-23T06:06:06;15.60;84.00
63966;DHT22;50151;52.030;5.350;2022-07-23T06:08:33;15.70;84.40
63966;DHT22;50151;52.030;5.350;2022-07-23T06:11:00;15.70;83.30
63966;DHT22;50151;52.030;5.350;2022-07-23T06:13:26;15.80;83.40
63966;DHT22;50151;52.030;5.350;2022-07-23T06:15:53;15.90;82.50
63966;DHT22;50151;52.030;5.350;2022-07-23T06:18:20;16.00;82.80
63966;DHT22;50151;52.030;5.350;2022-07-23T06:20:47;16.00;82.70
63966;DHT22;50151;52.030;5.350;2022-07-23T06:23:17;16.10;81.80
63966;DHT22;50151;52.030;5.350;2022-07-23T06:25:43;16.20;81.50
63966;DHT22;50151;52.030;5.350;2022-07-23T06:28:10;16.20;81.10
63966;DHT22;50151;52.030;5.350;2022-07-23T06:30:37;16.10;81.60
63966;DHT22;50151;52.030;5.350;2022-07-23T06:33:04;16.20;81.70
63966;DHT22;50151;52.030;5.350;2022-07-23T06:35:31;16.30;80.40
63966;DHT22;50151;52.030;5.350;2022-07-23T06:37:57;16.40;81.70
63966;DHT22;50151;52.030;5.350;2022-07-23T06:40:35;16.40;81.00
63966;DHT22;50151;52.030;5.350;2022-07-23T06:43:11;16.50;81.60
63966;DHT22;50151;52.030;5.350;2022-07-23T06:45:46;16.60;81.20
63966;DHT22;50151;52.030;5.350;2022-07-23T06:48:20;16.60;79.80
63966;DHT22;50151;52.030;5.350;2022-07-23T06:50:52;16.80;80.30
63966;DHT22;50151;52.030;5.350;2022-07-23T06:53:28;16.80;81.10
63966;DHT22;50151;52.030;5.350;2022-07-23T06:56:01;16.90;79.70
63966;DHT22;50151;52.030;5.350;2022-07-23T06:58:44;17.00;79.00
63966;DHT22;50151;52.030;5.350;2022-07-23T07:01:13;17.00;77.20
63966;DHT22;50151;52.030;5.350;2022-07-23T07:03:42;17.10;76.30
63966;DHT22;50151;52.030;5.350;2022-07-23T07:06:08;17.10;75.70
63966;DHT22;50151;52.030;5.350;2022-07-23T07:08:35;17.10;75.60
63966;DHT22;50151;52.030;5.350;2022-07-23T07:11:02;17.10;75.20
63966;DHT22;50151;52.030;5.350;2022-07-23T07:13:29;17.20;73.80
63966;DHT22;50151;52.030;5.350;2022-07-23T07:15:56;17.30;72.90
63966;DHT22;50151;52.030;5.350;2022-07-23T07:18:24;17.40;73.40
63966;DHT22;50151;52.030;5.350;2022-07-23T07:20:50;17.40;73.10
63966;DHT22;50151;52.030;5.350;2022-07-23T07:23:17;17.50;73.10
63966;DHT22;50151;52.030;5.350;2022-07-23T07:25:44;17.50;73.50
63966;DHT22;50151;52.030;5.350;2022-07-23T07:28:11;17.70;73.20
63966;DHT22;50151;52.030;5.350;2022-07-23T07:30:37;17.80;71.70
63966;DHT22;50151;52.030;5.350;2022-07-23T07:33:05;17.60;70.80
63966;DHT22;50151;52.030;5.350;2022-07-23T07:35:31;17.70;70.90
63966;DHT22;50151;52.030;5.350;2022-07-23T07:38:00;17.60;70.60
63966;DHT22;50151;52.030;5.350;2022-07-23T07:40:27;17.60;71.80
63966;DHT22;50151;52.030;5.350;2022-07-23T07:42:59;17.80;70.80
63966;DHT22;50151;52.030;5.350;2022-07-23T07:45:28;18.00;71.40
63966;DHT22;50151;52.030;5.350;2022-07-23T07:47:55;18.10;70.60
63966;DHT22;50151;52.030;5.350;2022-07-23T07:50:22;18.30;70.70
63966;DHT22;50151;52.030;5.350;2022-07-23T07:52:50;18.40;70.00
63966;DHT22;50151;52.030;5.350;2022-07-23T07:55:17;18.30;68.60
63966;DHT22;50151;52.030;5.350;2022-07-23T07:57:44;18.20;68.70
63966;DHT22;50151;52.030;5.350;2022-07-23T08:00:15;18.20;68.30
63966;DHT22;50151;52.030;5.350;2022-07-23T08:02:48;18.30;67.70
63966;DHT22;50151;52.030;5.350;2022-07-23T08:05:24;18.40;68.00
63966;DHT22;50151;52.030;5.350;2022-07-23T08:07:54;18.50;68.30
63966;DHT22;50151;52.030;5.350;2022-07-23T08:10:23;18.60;68.10
63966;DHT22;50151;52.030;5.350;2022-07-23T08:12:52;18.70;67.30
63966;DHT22;50151;52.030;5.350;2022-07-23T08:15:25;18.70;67.20
63966;DHT22;50151;52.030;5.350;2022-07-23T08:17:53;18.80;67.20
63966;DHT22;50151;52.030;5.350;2022-07-23T08:20:25;19.00;66.60
63966;DHT22;50151;52.030;5.350;2022-07-23T08:23:04;18.80;66.30
63966;DHT22;50151;52.030;5.350;2022-07-23T08:25:37;19.10;66.50
63966;DHT22;50151;52.030;5.350;2022-07-23T08:28:07;19.10;65.50
63966;DHT22;50151;52.030;5.350;2022-07-23T08:30:35;19.20;66.60
63966;DHT22;50151;52.030;5.350;2022-07-23T08:33:04;19.20;65.40
63966;DHT22;50151;52.030;5.350;2022-07-23T08:37:59;19.30;64.80
63966;DHT22;50151;52.030;5.350;2022-07-23T08:40:30;19.50;64.60
63966;DHT22;50151;52.030;5.350;2022-07-23T08:42:58;19.60;64.50
63966;DHT22;50151;52.030;5.350;2022-07-23T08:45:25;19.50;62.90
63966;DHT22;50151;52.030;5.350;2022-07-23T08:47:55;19.50;63.60
63966;DHT22;50151;52.030;5.350;2022-07-23T08:50:23;19.70;65.00
63966;DHT22;50151;52.030;5.350;2022-07-23T08:52:52;19.90;62.80
63966;DHT22;50151;52.030;5.350;2022-07-23T08:55:21;19.90;63.10
63966;DHT22;50151;52.030;5.350;2022-07-23T08:57:51;19.90;63.50
63966;DHT22;50151;52.030;5.350;2022-07-23T09:00:20;19.90;62.90
63966;DHT22;50151;52.030;5.350;2022-07-23T09:02:48;20.00;61.60
63966;DHT22;50151;52.030;5.350;2022-07-23T09:05:17;20.10;61.20
63966;DHT22;50151;52.030;5.350;2022-07-23T09:08:06;20.30;62.00
63966;DHT22;50151;52.030;5.350;2022-07-23T09:10:44;20.40;61.60
63966;DHT22;50151;52.030;5.350;2022-07-23T09:13:32;20.40;61.40
63966;DHT22;50151;52.030;5.350;2022-07-23T09:16:34;20.50;61.20
63966;DHT22;50151;52.030;5.350;2022-07-23T09:18:56;20.60;60.30
63966;DHT22;50151;52.030;5.350;2022-07-23T09:21:34;20.40;60.40
63966;DHT22;50151;52.030;5.350;2022-07-23T09:24:12;20.40;61.00
63966;DHT22;50151;52.030;5.350;2022-07-23T09:26:48;20.50;60.80
63966;DHT22;50151;52.030;5.350;2022-07-23T09:29:20;20.50;60.40
63966;DHT22;50151;52.030;5.350;2022-07-23T09:31:57;20.70;60.90
63966;DHT22;50151;52.030;5.350;2022-07-23T09:34:26;20.80;60.60
63966;DHT22;50151;52.030;5.350;2022-07-23T09:37:12;20.90;60.50
63966;DHT22;50151;52.030;5.350;2022-07-23T09:39:42;20.90;59.90
63966;DHT22;50151;52.030;5.350;2022-07-23T09:42:33;20.90;59.80
63966;DHT22;50151;52.030;5.350;2022-07-23T09:45:00;21.30;59.80
63966;DHT22;50151;52.030;5.350;2022-07-23T09:47:32;20.90;58.40
63966;DHT22;50151;52.030;5.350;2022-07-23T09:50:03;21.10;58.80
63966;DHT22;50151;52.030;5.350;2022-07-23T09:52:43;21.20;59.40
63966;DHT22;50151;52.030;5.350;2022-07-23T09:55:11;21.40;58.20
63966;DHT22;50151;52.030;5.350;2022-07-23T09:57:40;21.40;58.60
63966;DHT22;50151;52.030;5.350;2022-07-23T10:00:09;21.60;58.70
63966;DHT22;50151;52.030;5.350;2022-07-23T10:02:38;21.80;55.90
63966;DHT22;50151;52.030;5.350;2022-07-23T10:05:07;21.60;57.10
63966;DHT22;50151;52.030;5.350;2022-07-23T10:07:39;21.80;56.90
63966;DHT22;50151;52.030;5.350;2022-07-23T10:10:07;21.90;56.90
63966;DHT22;50151;52.030;5.350;2022-07-23T10:12:35;22.20;56.50
63966;DHT22;50151;52.030;5.350;2022-07-23T10:15:05;22.10;55.90
63966;DHT22;50151;52.030;5.350;2022-07-23T10:17:35;22.20;56.50
63966;DHT22;50151;52.030;5.350;2022-07-23T10:20:03;22.20;55.50
63966;DHT22;50151;52.030;5.350;2022-07-23T10:22:56;22.10;54.40
63966;DHT22;50151;52.030;5.350;2022-07-23T10:25:39;22.20;54.70
63966;DHT22;50151;52.030;5.350;2022-07-23T10:28:25;22.60;54.50
63966;DHT22;50151;52.030;5.350;2022-07-23T10:31:10;22.60;54.40
63966;DHT22;50151;52.030;5.350;2022-07-23T10:34:12;22.80;54.80
63966;DHT22;50151;52.030;5.350;2022-07-23T10:36:49;22.80;53.40
63966;DHT22;50151;52.030;5.350;2022-07-23T10:39:35;22.80;53.20
63966;DHT22;50151;52.030;5.350;2022-07-23T10:42:12;22.60;52.70
63966;DHT22;50151;52.030;5.350;2022-07-23T10:44:44;22.90;53.20
63966;DHT22;50151;52.030;5.350;2022-07-23T10:47:25;23.00;52.10
63966;DHT22;50151;52.030;5.350;2022-07-23T10:50:24;22.70;51.60
63966;DHT22;50151;52.030;5.350;2022-07-23T10:55:39;23.20;51.50
63966;DHT22;50151;52.030;5.350;2022-07-23T10:58:12;23.50;51.70
63966;DHT22;50151;52.030;5.350;2022-07-23T11:00:46;23.60;49.80
63966;DHT22;50151;52.030;5.350;2022-07-23T11:03:30;23.60;49.90
63966;DHT22;50151;52.030;5.350;2022-07-23T11:05:59;23.70;50.30
63966;DHT22;50151;52.030;5.350;2022-07-23T11:08:26;23.50;49.50
63966;DHT22;50151;52.030;5.350;2022-07-23T11:16:31;24.00;48.80
63966;DHT22;50151;52.030;5.350;2022-07-23T11:18:57;24.00;48.90
63966;DHT22;50151;52.030;5.350;2022-07-23T11:24:09;24.10;47.60
63966;DHT22;50151;52.030;5.350;2022-07-23T11:31:57;24.40;46.70
63966;DHT22;50151;52.030;5.350;2022-07-23T11:34:45;24.20;45.80
63966;DHT22;50151;52.030;5.350;2022-07-23T11:37:27;24.50;47.60
63966;DHT22;50151;52.030;5.350;2022-07-23T11:39:56;24.70;45.60
63966;DHT22;50151;52.030;5.350;2022-07-23T11:42:24;24.80;45.30
63966;DHT22;50151;52.030;5.350;2022-07-23T11:44:57;24.90;45.70
63966;DHT22;50151;52.030;5.350;2022-07-23T11:47:25;24.80;44.80
63966;DHT22;50151;52.030;5.350;2022-07-23T11:49:58;25.10;45.20
63966;DHT22;50151;52.030;5.350;2022-07-23T11:52:25;24.90;44.30
63966;DHT22;50151;52.030;5.350;2022-07-23T11:54:58;24.80;44.10
63966;DHT22;50151;52.030;5.350;2022-07-23T11:57:49;24.90;43.70
63966;DHT22;50151;52.030;5.350;2022-07-23T12:00:22;24.90;44.30
63966;DHT22;50151;52.030;5.350;2022-07-23T12:02:52;24.90;43.10
63966;DHT22;50151;52.030;5.350;2022-07-23T12:05:26;25.10;43.30
63966;DHT22;50151;52.030;5.350;2022-07-23T12:07:55;25.20;42.90
63966;DHT22;50151;52.030;5.350;2022-07-23T12:10:27;25.50;43.30
63966;DHT22;50151;52.030;5.350;2022-07-23T12:13:02;25.80;42.20
63966;DHT22;50151;52.030;5.350;2022-07-23T12:15:34;25.40;41.50
63966;DHT22;50151;52.030;5.350;2022-07-23T12:18:05;25.60;42.10
63966;DHT22;50151;52.030;5.350;2022-07-23T12:20:52;25.50;41.30
63966;DHT22;50151;52.030;5.350;2022-07-23T12:23:21;25.70;41.40
63966;DHT22;50151;52.030;5.350;2022-07-23T12:25:50;26.10;41.00
63966;DHT22;50151;52.030;5.350;2022-07-23T12:28:19;25.80;40.00
63966;DHT22;50151;52.030;5.350;2022-07-23T12:30:55;26.00;40.40
63966;DHT22;50151;52.030;5.350;2022-07-23T12:33:26;26.10;40.20
63966;DHT22;50151;52.030;5.350;2022-07-23T12:36:05;26.00;40.70
63966;DHT22;50151;52.030;5.350;2022-07-23T12:38:43;25.70;40.70
63966;DHT22;50151;52.030;5.350;2022-07-23T12:41:13;26.10;40.90
63966;DHT22;50151;52.030;5.350;2022-07-23T12:43:41;25.70;40.30
63966;DHT22;50151;52.030;5.350;2022-07-23T12:46:14;26.30;41.00
63966;DHT22;50151;52.030;5.350;2022-07-23T12:51:29;26.70;39.10
63966;DHT22;50151;52.030;5.350;2022-07-23T12:54:08;26.40;38.80
63966;DHT22;50151;52.030;5.350;2022-07-23T12:56:38;26.90;39.70
63966;DHT22;50151;52.030;5.350;2022-07-23T12:59:12;27.10;38.40
63966;DHT22;50151;52.030;5.350;2022-07-23T13:01:54;26.90;39.10
63966;DHT22;50151;52.030;5.350;2022-07-23T13:04:24;27.10;39.50
63966;DHT22;50151;52.030;5.350;2022-07-23T13:06:55;27.50;39.50
63966;DHT22;50151;52.030;5.350;2022-07-23T13:09:28;27.50;39.70
63966;DHT22;50151;52.030;5.350;2022-07-23T13:11:59;27.40;39.70
63966;DHT22;50151;52.030;5.350;2022-07-23T13:14:26;27.30;38.80
63966;DHT22;50151;52.030;5.350;2022-07-23T13:16:54;27.30;39.40
63966;DHT22;50151;52.030;5.350;2022-07-23T13:19:23;27.60;39.10
63966;DHT22;50151;52.030;5.350;2022-07-23T13:21:52;27.70;37.50
63966;DHT22;50151;52.030;5.350;2022-07-23T13:24:20;27.80;37.80
63966;DHT22;50151;52.030;5.350;2022-07-23T13:26:47;27.40;37.10
63966;DHT22;50151;52.030;5.350;2022-07-23T13:29:16;27.60;37.00
63966;DHT22;50151;52.030;5.350;2022-07-23T13:31:45;28.00;38.00
63966;DHT22;50151;52.030;5.350;2022-07-23T13:34:12;28.10;37.10
63966;DHT22;50151;52.030;5.350;2022-07-23T13:36:39;28.60;38.00
63966;DHT22;50151;52.030;5.350;2022-07-23T13:39:06;29.00;36.40
63966;DHT22;50151;52.030;5.350;2022-07-23T13:41:36;29.00;37.20
63966;DHT22;50151;52.030;5.350;2022-07-23T13:44:04;29.30;36.80
63966;DHT22;50151;52.030;5.350;2022-07-23T13:46:32;28.70;36.50
63966;DHT22;50151;52.030;5.350;2022-07-23T13:49:00;28.90;38.10
63966;DHT22;50151;52.030;5.350;2022-07-23T13:51:28;28.70;37.00
63966;DHT22;50151;52.030;5.350;2022-07-23T13:53:55;28.90;37.60
63966;DHT22;50151;52.030;5.350;2022-07-23T13:56:25;29.40;37.10
63966;DHT22;50151;52.030;5.350;2022-07-23T13:58:52;29.00;36.70
63966;DHT22;50151;52.030;5.350;2022-07-23T14:01:19;28.80;37.10
63966;DHT22;50151;52.030;5.350;2022-07-23T14:03:46;29.00;37.60
63966;DHT22;50151;52.030;5.350;2022-07-23T14:06:14;29.10;37.70
63966;DHT22;50151;52.030;5.350;2022-07-23T14:08:43;29.40;36.30
63966;DHT22;50151;52.030;5.350;2022-07-23T14:11:10;29.60;36.30
63966;DHT22;50151;52.030;5.350;2022-07-23T14:13:37;29.70;36.00
63966;DHT22;50151;52.030;5.350;2022-07-23T14:16:06;29.20;36.10
63966;DHT22;50151;52.030;5.350;2022-07-23T14:18:33;29.40;35.90
63966;DHT22;50151;52.030;5.350;2022-07-23T14:21:00;29.30;35.10
63966;DHT22;50151;52.030;5.350;2022-07-23T14:23:27;29.50;36.30
63966;DHT22;50151;52.030;5.350;2022-07-23T14:25:54;30.00;35.30
63966;DHT22;50151;52.030;5.350;2022-07-23T14:28:21;30.00;34.40
63966;DHT22;50151;52.030;5.350;2022-07-23T14:30:48;29.90;35.10
63966;DHT22;50151;52.030;5.350;2022-07-23T14:33:15;30.00;35.40
63966;DHT22;50151;52.030;5.350;2022-07-23T14:35:43;29.80;34.70
63966;DHT22;50151;52.030;5.350;2022-07-23T14:38:10;29.30;35.40
63966;DHT22;50151;52.030;5.350;2022-07-23T14:40:40;29.70;35.60
63966;DHT22;50151;52.030;5.350;2022-07-23T14:43:06;29.90;34.50
63966;DHT22;50151;52.030;5.350;2022-07-23T14:45:36;29.80;34.70
63966;DHT22;50151;52.030;5.350;2022-07-23T14:48:03;29.40;34.50
63966;DHT22;50151;52.030;5.350;2022-07-23T14:50:30;29.00;35.00
63966;DHT22;50151;52.030;5.350;2022-07-23T14:52:57;29.20;34.60
63966;DHT22;50151;52.030;5.350;2022-07-23T14:55:23;29.30;35.60
63966;DHT22;50151;52.030;5.350;2022-07-23T14:57:50;28.90;34.60
63966;DHT22;50151;52.030;5.350;2022-07-23T15:00:17;29.20;36.00
63966;DHT22;50151;52.030;5.350;2022-07-23T15:02:49;29.30;35.00
63966;DHT22;50151;52.030;5.350;2022-07-23T15:05:21;28.70;35.80
63966;DHT22;50151;52.030;5.350;2022-07-23T15:07:48;28.80;36.10
63966;DHT22;50151;52.030;5.350;2022-07-23T15:10:16;28.90;35.60
63966;DHT22;50151;52.030;5.350;2022-07-23T15:12:48;28.70;35.50
63966;DHT22;50151;52.030;5.350;2022-07-23T15:15:14;28.80;35.40
63966;DHT22;50151;52.030;5.350;2022-07-23T15:17:41;28.70;35.50
63966;DHT22;50151;52.030;5.350;2022-07-23T15:20:09;28.50;35.70
63966;DHT22;50151;52.030;5.350;2022-07-23T15:22:36;28.30;36.40
63966;DHT22;50151;52.030;5.350;2022-07-23T15:25:03;28.70;36.50
63966;DHT22;50151;52.030;5.350;2022-07-23T15:27:30;28.80;36.20
63966;DHT22;50151;52.030;5.350;2022-07-23T15:29:57;28.50;35.90
63966;DHT22;50151;52.030;5.350;2022-07-23T15:32:24;28.80;35.70
63966;DHT22;50151;52.030;5.350;2022-07-23T15:34:54;28.30;36.30
63966;DHT22;50151;52.030;5.350;2022-07-23T15:37:21;28.40;36.10
63966;DHT22;50151;52.030;5.350;2022-07-23T15:39:50;28.30;36.10
63966;DHT22;50151;52.030;5.350;2022-07-23T15:42:19;28.50;36.90
63966;DHT22;50151;52.030;5.350;2022-07-23T15:44:45;28.50;37.10
63966;DHT22;50151;52.030;5.350;2022-07-23T15:47:16;28.60;36.70
63966;DHT22;50151;52.030;5.350;2022-07-23T15:49:46;28.30;36.70
63966;DHT22;50151;52.030;5.350;2022-07-23T15:52:13;28.40;36.80
63966;DHT22;50151;52.030;5.350;2022-07-23T15:54:40;28.60;37.00
63966;DHT22;50151;52.030;5.350;2022-07-23T15:57:07;27.80;37.00
63966;DHT22;50151;52.030;5.350;2022-07-23T15:59:35;27.90;37.50
63966;DHT22;50151;52.030;5.350;2022-07-23T16:02:02;28.10;37.30
63966;DHT22;50151;52.030;5.350;2022-07-23T16:04:30;27.90;37.00
63966;DHT22;50151;52.030;5.350;2022-07-23T16:06:57;28.10;36.90
63966;DHT22;50151;52.030;5.350;2022-07-23T16:09:24;28.10;37.50
63966;DHT22;50151;52.030;5.350;2022-07-23T16:11:51;28.10;38.00
63966;DHT22;50151;52.030;5.350;2022-07-23T16:14:19;28.10;37.20
63966;DHT22;50151;52.030;5.350;2022-07-23T16:16:47;27.90;37.00
63966;DHT22;50151;52.030;5.350;2022-07-23T16:19:13;28.20;37.80
63966;DHT22;50151;52.030;5.350;2022-07-23T16:21:40;28.20;37.50
63966;DHT22;50151;52.030;5.350;2022-07-23T16:24:07;28.10;38.10
63966;DHT22;50151;52.030;5.350;2022-07-23T16:26:34;28.00;37.70
63966;DHT22;50151;52.030;5.350;2022-07-23T16:29:01;28.10;37.80
63966;DHT22;50151;52.030;5.350;2022-07-23T16:31:28;28.10;37.30
63966;DHT22;50151;52.030;5.350;2022-07-23T16:33:57;28.00;37.80
63966;DHT22;50151;52.030;5.350;2022-07-23T16:36:24;28.00;37.90
63966;DHT22;50151;52.030;5.350;2022-07-23T16:38:50;27.70;38.00
63966;DHT22;50151;52.030;5.350;2022-07-23T16:41:17;27.80;37.70
63966;DHT22;50151;52.030;5.350;2022-07-23T16:43:44;27.80;37.70
63966;DHT22;50151;52.030;5.350;2022-07-23T16:46:12;27.40;38.60
63966;DHT22;50151;52.030;5.350;2022-07-23T16:48:39;27.30;39.50
63966;DHT22;50151;52.030;5.350;2022-07-23T16:51:06;27.20;39.10
63966;DHT22;50151;52.030;5.350;2022-07-23T16:53:34;27.20;39.10
63966;DHT22;50151;52.030;5.350;2022-07-23T16:56:05;27.30;39.40
63966;DHT22;50151;52.030;5.350;2022-07-23T16:58:33;27.30;39.20
63966;DHT22;50151;52.030;5.350;2022-07-23T17:00:59;27.10;40.00
63966;DHT22;50151;52.030;5.350;2022-07-23T17:03:26;27.50;40.10
63966;DHT22;50151;52.030;5.350;2022-07-23T17:05:55;27.20;40.00
63966;DHT22;50151;52.030;5.350;2022-07-23T17:08:23;26.80;39.60
63966;DHT22;50151;52.030;5.350;2022-07-23T17:10:54;26.90;40.20
63966;DHT22;50151;52.030;5.350;2022-07-23T17:13:21;26.90;40.20
63966;DHT22;50151;52.030;5.350;2022-07-23T17:15:47;26.70;39.90
63966;DHT22;50151;52.030;5.350;2022-07-23T17:18:14;26.60;40.20
63966;DHT22;50151;52.030;5.350;2022-07-23T17:20:41;26.60;40.90
63966;DHT22;50151;52.030;5.350;2022-07-23T17:23:09;26.70;41.10
63966;DHT22;50151;52.030;5.350;2022-07-23T17:25:36;26.60;41.50
63966;DHT22;50151;52.030;5.350;2022-07-23T17:28:03;26.70;40.80
63966;DHT22;50151;52.030;5.350;2022-07-23T17:30:30;26.70;41.20
63966;DHT22;50151;52.030;5.350;2022-07-23T17:32:57;26.80;41.50
63966;DHT22;50151;52.030;5.350;2022-07-23T17:35:32;26.80;41.80
63966;DHT22;50151;52.030;5.350;2022-07-23T17:37:59;26.60;41.30
63966;DHT22;50151;52.030;5.350;2022-07-23T17:40:25;26.60;41.10
63966;DHT22;50151;52.030;5.350;2022-07-23T17:42:52;26.70;41.20
63966;DHT22;50151;52.030;5.350;2022-07-23T17:45:19;26.70;41.30
63966;DHT22;50151;52.030;5.350;2022-07-23T17:47:45;26.50;42.40
63966;DHT22;50151;52.030;5.350;2022-07-23T17:50:16;26.40;41.80
63966;DHT22;50151;52.030;5.350;2022-07-23T17:52:51;26.40;42.10
63966;DHT22;50151;52.030;5.350;2022-07-23T17:55:19;26.40;42.80
63966;DHT22;50151;52.030;5.350;2022-07-23T17:57:49;26.50;42.50
63966;DHT22;50151;52.030;5.350;2022-07-23T18:00:20;26.30;41.80
63966;DHT22;50151;52.030;5.350;2022-07-23T18:02:47;26.50;42.40
63966;DHT22;50151;52.030;5.350;2022-07-23T18:05:14;26.90;41.70
63966;DHT22;50151;52.030;5.350;2022-07-23T18:07:41;26.80;42.00
63966;DHT22;50151;52.030;5.350;2022-07-23T18:10:08;26.50;41.90
63966;DHT22;50151;52.030;5.350;2022-07-23T18:12:35;26.80;42.30
63966;DHT22;50151;52.030;5.350;2022-07-23T18:15:03;26.60;41.70
63966;DHT22;50151;52.030;5.350;2022-07-23T18:17:33;26.80;42.30
63966;DHT22;50151;52.030;5.350;2022-07-23T18:20:01;26.80;41.10
63966;DHT22;50151;52.030;5.350;2022-07-23T18:22:28;27.00;41.90
63966;DHT22;50151;52.030;5.350;2022-07-23T18:24:55;27.10;41.50
63966;DHT22;50151;52.030;5.350;2022-07-23T18:27:22;27.20;41.40
63966;DHT22;50151;52.030;5.350;2022-07-23T18:29:49;27.40;41.30
63966;DHT22;50151;52.030;5.350;2022-07-23T18:32:16;27.40;41.10
63966;DHT22;50151;52.030;5.350;2022-07-23T18:34:43;26.80;41.10
63966;DHT22;50151;52.030;5.350;2022-07-23T18:37:10;26.80;42.00
63966;DHT22;50151;52.030;5.350;2022-07-23T18:39:57;26.70;43.50
63966;DHT22;50151;52.030;5.350;2022-07-23T18:42:25;26.40;44.90
63966;DHT22;50151;52.030;5.350;2022-07-23T18:44:52;26.20;46.90
63966;DHT22;50151;52.030;5.350;2022-07-23T18:47:19;26.00;48.00
63966;DHT22;50151;52.030;5.350;2022-07-23T18:49:47;25.90;48.70
63966;DHT22;50151;52.030;5.350;2022-07-23T18:52:13;25.80;48.80
63966;DHT22;50151;52.030;5.350;2022-07-23T18:54:41;25.50;49.90
63966;DHT22;50151;52.030;5.350;2022-07-23T18:57:08;25.40;50.80
63966;DHT22;50151;52.030;5.350;2022-07-23T18:59:35;25.20;51.20
63966;DHT22;50151;52.030;5.350;2022-07-23T19:02:03;25.00;51.40
63966;DHT22;50151;52.030;5.350;2022-07-23T19:04:31;25.00;52.00
63966;DHT22;50151;52.030;5.350;2022-07-23T19:06:58;24.90;52.40
63966;DHT22;50151;52.030;5.350;2022-07-23T19:09:25;24.90;52.80
63966;DHT22;50151;52.030;5.350;2022-07-23T19:11:59;24.80;53.10
63966;DHT22;50151;52.030;5.350;2022-07-23T19:14:27;24.60;53.50
63966;DHT22;50151;52.030;5.350;2022-07-23T19:16:54;24.50;53.70
63966;DHT22;50151;52.030;5.350;2022-07-23T19:19:21;24.30;54.10
63966;DHT22;50151;52.030;5.350;2022-07-23T19:21:48;24.10;54.80
63966;DHT22;50151;52.030;5.350;2022-07-23T19:24:16;24.20;54.90
63966;DHT22;50151;52.030;5.350;2022-07-23T19:26:42;24.10;54.50
63966;DHT22;50151;52.030;5.350;2022-07-23T19:29:09;24.00;55.00
63966;DHT22;50151;52.030;5.350;2022-07-23T19:31:36;23.90;55.70
63966;DHT22;50151;52.030;5.350;2022-07-23T19:34:03;23.70;56.60
63966;DHT22;50151;52.030;5.350;2022-07-23T19:36:31;23.70;57.20
63966;DHT22;50151;52.030;5.350;2022-07-23T19:38:58;23.70;57.60
63966;DHT22;50151;52.030;5.350;2022-07-23T19:41:25;23.50;58.30
63966;DHT22;50151;52.030;5.350;2022-07-23T19:43:52;23.40;58.50
63966;DHT22;50151;52.030;5.350;2022-07-23T19:46:19;23.20;59.20
63966;DHT22;50151;52.030;5.350;2022-07-23T19:48:48;23.20;59.20
63966;DHT22;50151;52.030;5.350;2022-07-23T19:51:15;23.20;59.50
63966;DHT22;50151;52.030;5.350;2022-07-23T19:53:42;23.00;60.00
63966;DHT22;50151;52.030;5.350;2022-07-23T19:56:09;22.90;60.30
63966;DHT22;50151;52.030;5.350;2022-07-23T19:58:36;22.80;60.60
63966;DHT22;50151;52.030;5.350;2022-07-23T20:01:03;22.70;60.60
63966;DHT22;50151;52.030;5.350;2022-07-23T20:03:30;22.70;60.70
63966;DHT22;50151;52.030;5.350;2022-07-23T20:05:57;22.60;61.00
63966;DHT22;50151;52.030;5.350;2022-07-23T20:08:24;22.50;61.30
63966;DHT22;50151;52.030;5.350;2022-07-23T20:10:51;22.40;61.30
63966;DHT22;50151;52.030;5.350;2022-07-23T20:13:18;22.30;61.50
63966;DHT22;50151;52.030;5.350;2022-07-23T20:15:45;22.20;61.90
63966;DHT22;50151;52.030;5.350;2022-07-23T20:18:15;22.20;61.80
63966;DHT22;50151;52.030;5.350;2022-07-23T20:20:42;22.10;61.80
63966;DHT22;50151;52.030;5.350;2022-07-23T20:23:10;22.00;61.90
63966;DHT22;50151;52.030;5.350;2022-07-23T20:25:37;22.00;62.20
63966;DHT22;50151;52.030;5.350;2022-07-23T20:28:07;22.00;62.20
63966;DHT22;50151;52.030;5.350;2022-07-23T20:30:34;21.90;62.40
63966;DHT22;50151;52.030;5.350;2022-07-23T20:33:01;21.70;62.60
63966;DHT22;50151;52.030;5.350;2022-07-23T20:35:28;21.70;62.90
63966;DHT22;50151;52.030;5.350;2022-07-23T20:37:57;21.60;63.10
63966;DHT22;50151;52.030;5.350;2022-07-23T20:40:24;21.60;63.30
63966;DHT22;50151;52.030;5.350;2022-07-23T20:42:51;21.60;63.30